createdAt,value
2022-12-15T00:02:17.991Z,32.45
2022-12-15T00:05:03.144Z,33.35
2022-12-15T00:07:48.430Z,32.50
2022-12-15T00:10:33.440Z,34.95
2022-12-15T00:13:18.713Z,33.33
2022-12-15T00:16:07.315Z,31.55
2022-12-15T00:18:52.555Z,33.90
2022-12-15T00:21:37.742Z,33.60
2022-12-15T00:24:23.293Z,32.83
2022-12-15T00:27:08.375Z,35.63
2022-12-15T00:29:53.721Z,33.83
2022-12-15T00:32:38.896Z,33.35
2022-12-15T00:35:24.638Z,33.13
2022-12-15T00:38:09.813Z,32.97
2022-12-15T00:40:37.019Z,32.83
2022-12-15T00:43:04.148Z,33.42
2022-12-15T00:45:49.618Z,35.90
2022-12-15T00:48:16.259Z,35.00
2022-12-15T00:50:53.534Z,34.30
2022-12-15T00:53:43.287Z,34.22
2022-12-15T00:56:29.130Z,34.42
2022-12-15T00:59:15.007Z,32.65
2022-12-15T01:02:01.007Z,35.72
2022-12-15T01:04:47.761Z,34.28
2022-12-15T01:07:33.555Z,33.33
2022-12-15T01:10:19.037Z,34.17
2022-12-15T01:13:05.313Z,33.05
2022-12-15T01:15:50.393Z,34.47
2022-12-15T01:18:35.630Z,34.50
2022-12-15T01:21:05.089Z,33.92
2022-12-15T01:23:33.185Z,33.15
2022-12-15T01:26:00.313Z,34.53
2022-12-15T01:28:26.880Z,33.38
2022-12-15T01:30:53.787Z,32.22
2022-12-15T01:33:21.244Z,34.63
2022-12-15T01:35:57.928Z,32.70
2022-12-15T01:38:25.003Z,31.30
2022-12-15T01:41:04.853Z,32.00
2022-12-15T01:43:35.378Z,31.00
2022-12-15T01:46:23.113Z,34.33
2022-12-15T01:48:59.211Z,32.72
2022-12-15T01:51:33.305Z,30.90
2022-12-15T01:54:05.470Z,32.65
2022-12-15T01:56:46.094Z,33.63
2022-12-15T01:59:17.186Z,33.30
2022-12-15T02:01:43.896Z,33.28
2022-12-15T02:04:19.406Z,32.85
2022-12-15T02:06:45.998Z,33.78
2022-12-15T02:09:12.924Z,34.78
2022-12-15T02:11:48.099Z,33.60
2022-12-15T02:14:56.073Z,36.55
2022-12-15T02:17:34.653Z,34.38
2022-12-15T02:20:48.519Z,36.50
2022-12-15T02:23:27.208Z,34.42
2022-12-15T02:26:18.568Z,32.55
2022-12-15T02:29:15.553Z,33.38
2022-12-15T02:32:13.644Z,32.25
2022-12-15T02:34:43.377Z,33.47
2022-12-15T02:37:18.856Z,33.75
2022-12-15T02:39:45.525Z,35.33
2022-12-15T02:42:12.544Z,35.22
2022-12-15T02:45:05.385Z,34.35
2022-12-15T02:47:46.315Z,36.55
2022-12-15T02:50:40.761Z,36.72
2022-12-15T02:53:25.521Z,35.92
2022-12-15T02:56:34.353Z,35.28
2022-12-15T02:59:00.918Z,35.67
2022-12-15T03:01:42.983Z,35.08
2022-12-15T03:04:11.810Z,35.88
2022-12-15T03:06:39.019Z,35.63
2022-12-15T03:09:05.818Z,38.00
2022-12-15T03:11:32.455Z,37.50
2022-12-15T03:13:59.062Z,38.35
2022-12-15T03:16:25.758Z,38.08
2022-12-15T03:18:52.516Z,38.63
2022-12-15T03:21:19.749Z,39.60
2022-12-15T03:23:46.396Z,38.05
2022-12-15T03:26:13.029Z,38.65
2022-12-15T03:28:39.662Z,36.88
2022-12-15T03:31:07.096Z,39.50
2022-12-15T03:33:34.492Z,40.63
2022-12-15T03:36:01.852Z,37.30
2022-12-15T03:38:28.856Z,38.78
2022-12-15T03:40:55.481Z,38.97
2022-12-15T03:43:22.376Z,36.67
2022-12-15T03:45:49.381Z,36.50
2022-12-15T03:48:16.013Z,35.97
2022-12-15T03:50:42.721Z,37.22
2022-12-15T03:53:09.334Z,38.58
2022-12-15T03:55:36.341Z,39.15
2022-12-15T03:58:03.004Z,38.15
2022-12-15T04:00:30.372Z,39.90
2022-12-15T04:02:57.118Z,41.83
2022-12-15T04:05:28.360Z,38.42
2022-12-15T04:07:56.211Z,41.40
2022-12-15T04:10:27.370Z,41.83
2022-12-15T04:13:00.109Z,41.33
2022-12-15T04:15:27.642Z,40.42
2022-12-15T04:17:54.872Z,41.03
2022-12-15T04:20:22.098Z,40.65
2022-12-15T04:22:51.336Z,37.67
2022-12-15T04:25:39.572Z,40.83
2022-12-15T04:28:25.539Z,40.38
2022-12-15T04:31:17.471Z,42.33
2022-12-15T04:34:08.041Z,37.58
2022-12-15T04:36:55.225Z,36.65
2022-12-15T04:39:41.570Z,39.28
2022-12-15T04:42:26.726Z,38.00
2022-12-15T04:45:20.552Z,41.28
2022-12-15T04:48:06.736Z,39.13
2022-12-15T04:50:52.306Z,38.65
2022-12-15T04:53:38.575Z,39.20
2022-12-15T04:56:29.128Z,40.30
2022-12-15T04:59:14.550Z,38.08
2022-12-15T05:02:00.490Z,45.25
2022-12-15T05:04:45.768Z,41.17
2022-12-15T05:07:31.064Z,40.00
2022-12-15T05:10:16.288Z,41.00
2022-12-15T05:13:02.102Z,39.70
2022-12-15T05:15:48.067Z,39.97
2022-12-15T05:18:33.437Z,40.60
2022-12-15T05:21:18.758Z,41.85
2022-12-15T05:24:03.971Z,44.08
2022-12-15T05:26:52.982Z,41.97
2022-12-15T05:29:40.013Z,39.60
2022-12-15T05:32:08.062Z,42.97
2022-12-15T05:34:35.958Z,43.13
2022-12-15T05:37:04.259Z,38.83
2022-12-15T05:39:31.102Z,41.70
2022-12-15T05:41:57.954Z,41.83
2022-12-15T05:44:25.416Z,45.63
2022-12-15T05:46:52.380Z,43.40
2022-12-15T05:49:19.155Z,46.17
2022-12-15T05:51:48.194Z,44.58
2022-12-15T05:54:19.628Z,45.72
2022-12-15T05:56:50.294Z,44.58
2022-12-15T05:59:17.784Z,42.45
2022-12-15T06:01:44.854Z,42.60
2022-12-15T06:04:15.294Z,45.42
2022-12-15T06:06:42.061Z,48.35
2022-12-15T06:09:09.470Z,48.35
2022-12-15T06:11:37.213Z,45.45
2022-12-15T06:14:03.900Z,49.30
2022-12-15T06:16:30.590Z,48.05
2022-12-15T06:19:00.681Z,47.90
2022-12-15T06:21:35.065Z,49.10
2022-12-15T06:26:35.060Z,43.10
2022-12-15T06:29:03.108Z,44.22
2022-12-15T06:31:30.859Z,42.40
2022-12-15T06:34:02.080Z,41.17
2022-12-15T06:36:30.687Z,39.92
2022-12-15T06:39:02.874Z,42.22
2022-12-15T06:41:30.279Z,42.90
2022-12-15T06:43:57.393Z,47.22
2022-12-15T06:46:25.749Z,45.55
2022-12-15T06:48:53.069Z,46.35
2022-12-15T06:51:19.913Z,45.50
2022-12-15T06:53:50.783Z,43.20
2022-12-15T06:56:24.455Z,49.28
2022-12-15T06:58:55.713Z,47.10
2022-12-15T07:01:24.018Z,51.55
2022-12-15T07:03:54.841Z,50.17
2022-12-15T07:06:21.856Z,49.85
2022-12-15T07:08:52.302Z,46.38
2022-12-15T07:11:20.725Z,48.40
2022-12-15T07:13:52.109Z,48.80
2022-12-15T07:16:19.999Z,61.10
2022-12-15T07:18:46.798Z,81.50
2022-12-15T07:21:13.469Z,71.60
2022-12-15T07:23:54.115Z,76.05
2022-12-15T07:26:22.711Z,70.03
2022-12-15T07:28:49.447Z,100.40
2022-12-15T07:31:16.209Z,59.10
2022-12-15T07:33:43.063Z,57.80
2022-12-15T07:36:10.817Z,56.00
2022-12-15T07:38:37.511Z,58.30
2022-12-15T07:41:06.693Z,75.18
2022-12-15T07:43:34.134Z,60.25
2022-12-15T07:46:01.499Z,59.92
2022-12-15T07:48:29.630Z,52.10
2022-12-15T07:51:07.462Z,49.05
2022-12-15T07:53:37.015Z,48.28
2022-12-15T07:56:08.388Z,53.13
2022-12-15T07:58:36.672Z,53.15
2022-12-15T08:01:06.519Z,55.08
2022-12-15T08:03:34.660Z,53.00
2022-12-15T08:06:10.329Z,51.92
2022-12-15T08:08:37.580Z,50.22
2022-12-15T08:11:11.853Z,46.72
2022-12-15T08:16:26.941Z,44.22
2022-12-15T08:18:53.830Z,47.88
2022-12-15T08:21:21.013Z,44.92
2022-12-15T08:23:47.909Z,45.30
2022-12-15T08:26:17.591Z,46.15
2022-12-15T08:28:45.725Z,46.83
2022-12-15T08:31:18.614Z,46.45
2022-12-15T08:33:45.813Z,46.53
2022-12-15T08:36:14.732Z,46.42
2022-12-15T08:38:42.735Z,46.25
2022-12-15T08:41:15.657Z,46.67
2022-12-15T08:43:48.039Z,51.80
2022-12-15T08:46:16.764Z,52.08
2022-12-15T08:48:43.818Z,54.42
2022-12-15T08:51:10.517Z,57.83
2022-12-15T08:53:37.193Z,60.03
2022-12-15T08:56:06.052Z,152.70
2022-12-15T08:58:33.552Z,65.05
2022-12-15T09:01:06.131Z,59.63
2022-12-15T09:03:34.221Z,61.03
2022-12-15T09:06:05.894Z,66.55
2022-12-15T09:08:33.606Z,68.28
2022-12-15T09:11:01.544Z,63.88
2022-12-15T09:13:28.834Z,62.13
2022-12-15T09:16:10.388Z,65.20
2022-12-15T09:18:37.826Z,63.67
2022-12-15T09:21:07.033Z,69.35
2022-12-15T09:23:35.221Z,67.70
2022-12-15T09:26:14.210Z,68.70
2022-12-15T09:28:42.861Z,83.28
2022-12-15T09:31:20.760Z,86.00
2022-12-15T09:33:48.596Z,66.72
2022-12-15T09:36:15.450Z,65.65
2022-12-15T09:38:43.576Z,93.72
2022-12-15T09:41:13.222Z,90.60
2022-12-15T09:43:55.055Z,151.45
2022-12-15T09:47:00.541Z,109.53
2022-12-15T09:49:32.954Z,67.53
2022-12-15T09:52:10.985Z,73.82
2022-12-15T09:54:41.578Z,69.93
2022-12-15T09:57:14.848Z,58.20
2022-12-15T10:00:12.780Z,56.80
2022-12-15T10:02:42.263Z,60.80
2022-12-15T10:06:06.935Z,55.53
2022-12-15T10:08:23.289Z,55.13
2022-12-15T10:10:59.106Z,60.45
2022-12-15T10:13:28.943Z,59.60
2022-12-15T10:16:14.264Z,72.20
2022-12-15T10:19:05.832Z,66.00
2022-12-15T10:21:32.701Z,62.03
2022-12-15T10:24:15.509Z,58.60
2022-12-15T10:26:43.882Z,61.63
2022-12-15T10:29:27.584Z,59.30
2022-12-15T10:32:05.178Z,73.63
2022-12-15T10:34:37.893Z,80.13
2022-12-15T10:37:05.831Z,72.88
2022-12-15T10:39:39.173Z,73.32
2022-12-15T10:42:12.659Z,74.05
2022-12-15T10:44:42.717Z,70.95
2022-12-15T10:47:16.232Z,71.65
2022-12-15T10:49:43.081Z,69.55
2022-12-15T10:52:21.109Z,67.28
2022-12-15T10:54:50.117Z,60.35
2022-12-15T10:57:21.458Z,62.45
2022-12-15T11:02:36.666Z,57.72
2022-12-15T11:05:06.293Z,56.40
2022-12-15T11:07:34.808Z,56.45
2022-12-15T11:10:08.247Z,55.53
2022-12-15T11:12:58.177Z,59.78
2022-12-15T11:15:28.223Z,60.90
2022-12-15T11:18:12.702Z,58.78
2022-12-15T11:20:44.538Z,56.95
2022-12-15T11:23:50.606Z,55.90
2022-12-15T11:26:20.001Z,56.45
2022-12-15T11:28:55.469Z,57.22
2022-12-15T11:31:38.460Z,59.30
2022-12-15T11:34:15.704Z,59.50
2022-12-15T11:37:15.804Z,58.80
2022-12-15T11:40:15.269Z,58.42
2022-12-15T11:43:05.196Z,59.47
2022-12-15T11:45:37.460Z,60.40
2022-12-15T11:48:16.469Z,57.42
2022-12-15T11:51:14.354Z,59.70
2022-12-15T11:54:00.626Z,56.80
2022-12-15T11:56:49.781Z,58.40
2022-12-15T11:59:32.573Z,59.53
2022-12-15T12:02:22.918Z,56.38
2022-12-15T12:05:02.882Z,57.70
2022-12-15T12:07:41.550Z,57.83
2022-12-15T12:10:27.333Z,56.92
2022-12-15T12:15:50.653Z,54.25
2022-12-15T12:18:24.889Z,56.22
2022-12-15T12:21:14.885Z,54.63
2022-12-15T12:24:25.698Z,53.72
2022-12-15T12:27:01.528Z,55.25
2022-12-15T12:29:38.588Z,53.45
2022-12-15T12:32:33.414Z,51.65
2022-12-15T12:35:30.488Z,55.25
2022-12-15T12:38:04.666Z,54.25
2022-12-15T12:41:01.005Z,51.00
2022-12-15T12:43:34.658Z,54.70
2022-12-15T12:46:01.964Z,53.50
2022-12-15T12:48:50.742Z,55.75
2022-12-15T12:51:26.728Z,55.60
2022-12-15T12:53:54.221Z,54.88
2022-12-15T12:56:43.950Z,56.20
2022-12-15T12:59:30.563Z,55.20
2022-12-15T13:02:18.481Z,53.08
2022-12-15T13:05:04.327Z,54.25
2022-12-15T13:07:36.270Z,53.03
2022-12-15T13:10:02.874Z,57.15
2022-12-15T13:12:51.036Z,50.25
2022-12-15T13:15:26.998Z,51.35
2022-12-15T13:17:57.758Z,49.75
2022-12-15T13:20:32.107Z,47.33
2022-12-15T13:23:25.158Z,52.35
2022-12-15T13:25:57.840Z,56.83
2022-12-15T13:28:39.967Z,56.00
2022-12-15T13:31:19.514Z,54.22
2022-12-15T13:33:49.668Z,55.60
2022-12-15T13:36:41.302Z,56.67
2022-12-15T13:39:17.048Z,55.58
2022-12-15T13:42:15.214Z,53.50
2022-12-15T13:44:45.448Z,55.55
2022-12-15T13:47:16.704Z,56.28
2022-12-15T13:50:02.332Z,57.72
2022-12-15T13:55:39.938Z,58.17
2022-12-15T13:58:13.040Z,57.92
2022-12-15T14:00:46.961Z,60.88
2022-12-15T14:03:15.964Z,51.08
2022-12-15T14:05:55.241Z,63.42
2022-12-15T14:08:24.412Z,50.10
2022-12-15T14:10:57.024Z,54.55
2022-12-15T14:13:34.568Z,53.17
2022-12-15T14:16:14.159Z,54.08
2022-12-15T14:18:44.865Z,56.30
2022-12-15T14:21:24.104Z,57.35
2022-12-15T14:24:28.874Z,55.38
2022-12-15T14:26:37.494Z,54.85
2022-12-15T14:29:06.208Z,56.97
2022-12-15T14:31:33.763Z,53.28
2022-12-15T14:34:11.546Z,55.08
2022-12-15T14:36:41.042Z,54.85
2022-12-15T14:39:17.400Z,56.33
2022-12-15T14:41:48.918Z,54.05
2022-12-15T14:44:38.709Z,52.38
2022-12-15T14:47:16.133Z,56.28
2022-12-15T14:49:45.130Z,56.17
2022-12-15T14:52:23.768Z,59.08
2022-12-15T14:54:59.735Z,59.85
2022-12-15T14:57:45.047Z,62.90
2022-12-15T15:00:34.169Z,60.75
2022-12-15T15:03:06.810Z,60.40
2022-12-15T15:03:18.794Z,46.42
2022-12-15T15:05:56.921Z,46.28
2022-12-15T15:08:26.612Z,44.03
2022-12-15T15:10:55.997Z,44.28
2022-12-15T15:13:26.646Z,55.45
2022-12-15T15:15:56.030Z,51.15
2022-12-15T15:18:27.089Z,59.50
2022-12-15T15:21:03.152Z,59.45
2022-12-15T15:23:30.422Z,49.35
2022-12-15T15:26:06.953Z,50.25
2022-12-15T15:28:37.864Z,51.05
2022-12-15T15:31:33.922Z,55.78
2022-12-15T15:34:06.129Z,51.78
2022-12-15T15:36:36.065Z,58.00
2022-12-15T15:39:10.281Z,54.22
2022-12-15T15:41:36.903Z,51.47
2022-12-15T15:44:12.997Z,43.80
2022-12-15T15:46:48.170Z,40.25
2022-12-15T15:49:18.526Z,49.60
2022-12-15T15:51:45.605Z,60.40
2022-12-15T15:54:17.729Z,61.75
2022-12-15T15:56:44.372Z,49.80
2022-12-15T15:59:13.378Z,43.95
2022-12-15T16:01:40.644Z,39.00
2022-12-15T16:04:07.740Z,34.90
2022-12-15T16:06:35.767Z,37.72
2022-12-15T16:09:02.799Z,44.17
2022-12-15T16:11:33.067Z,60.00
2022-12-15T16:14:01.366Z,62.47
2022-12-15T16:16:31.749Z,58.08
2022-12-15T16:18:58.802Z,81.40
2022-12-15T16:21:27.621Z,66.38
2022-12-15T16:23:55.167Z,52.88
2022-12-15T16:26:30.295Z,65.82
2022-12-15T16:28:57.451Z,54.80
2022-12-15T16:31:41.476Z,54.40
2022-12-15T16:34:08.740Z,48.78
2022-12-15T16:36:35.474Z,44.55
2022-12-15T16:39:02.639Z,48.28
2022-12-15T16:41:29.274Z,48.03
2022-12-15T16:43:55.910Z,48.70
2022-12-15T16:46:22.571Z,49.55
2022-12-15T16:48:49.285Z,55.05
2022-12-15T16:51:37.017Z,58.10
2022-12-15T16:54:04.096Z,96.55
2022-12-15T16:56:30.826Z,67.85
2022-12-15T16:59:30.859Z,91.72
2022-12-15T17:01:44.666Z,116.07
2022-12-15T17:04:12.058Z,50.85
2022-12-15T17:06:39.088Z,58.20
2022-12-15T17:09:07.967Z,53.55
2022-12-15T17:11:35.382Z,90.43
2022-12-15T17:14:01.962Z,75.57
2022-12-15T17:16:29.807Z,64.32
2022-12-15T17:18:56.888Z,45.90
2022-12-15T17:21:30.512Z,43.88
2022-12-15T17:24:01.486Z,43.07
2022-12-15T17:26:31.490Z,40.25
2022-12-15T17:29:16.853Z,41.95
2022-12-15T17:31:43.628Z,41.95
2022-12-15T17:34:31.908Z,44.00
2022-12-15T17:37:00.826Z,39.30
2022-12-15T17:39:28.436Z,39.38
2022-12-15T17:42:00.558Z,37.55
2022-12-15T17:44:36.826Z,35.55
2022-12-15T17:47:07.223Z,36.08
2022-12-15T17:49:37.231Z,36.15
2022-12-15T17:52:27.749Z,32.67
2022-12-15T17:54:55.817Z,33.33
2022-12-15T17:57:22.573Z,37.33
2022-12-15T17:59:49.260Z,43.00
2022-12-15T18:02:16.039Z,43.95
2022-12-15T18:04:43.488Z,49.17
2022-12-15T18:07:21.294Z,66.85
2022-12-15T18:09:48.928Z,40.75
2022-12-15T18:12:26.914Z,35.10
2022-12-15T18:14:54.948Z,31.63
2022-12-15T18:17:21.979Z,37.30
2022-12-15T18:19:48.924Z,39.95
2022-12-15T18:22:22.103Z,42.25
2022-12-15T18:24:50.836Z,75.40
2022-12-15T18:27:25.090Z,140.02
2022-12-15T18:29:52.097Z,183.00
2022-12-15T18:32:19.467Z,114.15
2022-12-15T18:34:46.591Z,44.47
2022-12-15T18:37:16.556Z,49.08
2022-12-15T18:39:43.374Z,53.22
2022-12-15T18:42:18.736Z,49.10
2022-12-15T18:44:48.034Z,43.28
2022-12-15T18:47:17.325Z,37.65
2022-12-15T18:49:44.194Z,37.00
2022-12-15T18:52:15.986Z,40.00
2022-12-15T18:54:43.037Z,51.10
2022-12-15T18:57:35.707Z,50.08
2022-12-15T19:00:17.205Z,41.70
2022-12-15T19:02:44.187Z,35.58
2022-12-15T19:05:27.039Z,32.58
2022-12-15T19:08:03.709Z,43.38
2022-12-15T19:10:33.630Z,49.15
2022-12-15T19:13:00.925Z,42.33
2022-12-15T19:15:28.254Z,38.95
2022-12-15T19:18:13.321Z,40.08
2022-12-15T19:20:58.541Z,42.78
2022-12-15T19:23:25.549Z,37.45
2022-12-15T19:25:53.557Z,39.95
2022-12-15T19:28:22.509Z,41.85
2022-12-15T19:30:50.206Z,34.60
2022-12-15T19:33:17.788Z,39.45
2022-12-15T19:35:48.577Z,41.10
2022-12-15T19:38:21.701Z,45.15
2022-12-15T19:40:48.947Z,43.40
2022-12-15T19:43:17.209Z,45.05
2022-12-15T19:45:44.103Z,47.80
2022-12-15T19:48:12.447Z,48.70
2022-12-15T19:50:41.268Z,43.83
2022-12-15T19:53:22.617Z,43.78
2022-12-15T19:55:49.808Z,35.88
2022-12-15T19:58:28.591Z,38.38
2022-12-15T20:01:01.942Z,41.42
2022-12-15T20:03:32.086Z,39.92
2022-12-15T20:06:00.882Z,42.30
2022-12-15T20:08:33.335Z,38.47
2022-12-15T20:11:00.409Z,29.33
2022-12-15T20:13:27.293Z,38.03
2022-12-15T20:15:54.511Z,29.60
2022-12-15T20:18:21.220Z,28.77
2022-12-15T20:20:49.402Z,27.70
2022-12-15T20:23:25.839Z,27.88
2022-12-15T20:25:53.072Z,29.10
2022-12-15T20:28:25.785Z,30.02
2022-12-15T20:30:53.517Z,32.65
2022-12-15T20:33:20.725Z,33.25
2022-12-15T20:35:48.791Z,37.83
2022-12-15T20:38:29.473Z,44.00
2022-12-15T20:40:56.944Z,41.67
2022-12-15T20:43:24.902Z,29.60
2022-12-15T20:46:03.632Z,32.47
2022-12-15T20:48:31.788Z,28.65
2022-12-15T20:50:59.511Z,27.50
2022-12-15T20:53:27.832Z,28.63
2022-12-15T20:55:55.953Z,43.22
2022-12-15T20:58:28.356Z,30.45
2022-12-15T21:00:59.382Z,22.13
2022-12-15T21:03:32.761Z,22.83
2022-12-15T21:06:00.335Z,21.83
2022-12-15T21:08:29.806Z,28.70
2022-12-15T21:11:00.799Z,31.48
2022-12-15T21:13:32.096Z,31.67
2022-12-15T21:15:58.937Z,35.63
2022-12-15T21:19:18.038Z,37.45
2022-12-15T21:21:20.620Z,32.75
2022-12-15T21:23:48.487Z,39.90
2022-12-15T21:26:20.179Z,39.95
2022-12-15T21:28:48.515Z,41.05
2022-12-15T21:31:16.940Z,48.38
2022-12-15T21:33:43.716Z,38.80
2022-12-15T21:36:15.219Z,42.38
2022-12-15T21:38:43.095Z,49.58
2022-12-15T21:41:16.533Z,44.08
2022-12-15T21:43:44.018Z,49.03
2022-12-15T21:46:17.246Z,36.90
2022-12-15T21:49:03.048Z,39.75
2022-12-15T21:51:37.930Z,38.50
2022-12-15T21:54:11.847Z,29.60
2022-12-15T21:56:38.408Z,32.55
2022-12-15T21:59:13.029Z,37.35
2022-12-15T22:01:39.794Z,48.55
2022-12-15T22:04:15.585Z,50.55
2022-12-15T22:06:45.960Z,52.20
2022-12-15T22:11:47.921Z,24.15
2022-12-15T22:14:34.379Z,40.25
2022-12-15T22:17:09.865Z,48.03
2022-12-15T22:19:36.448Z,38.65
2022-12-15T22:22:03.050Z,26.35
2022-12-15T22:24:29.606Z,25.88
2022-12-15T22:26:56.353Z,24.15
2022-12-15T22:29:24.053Z,25.10
2022-12-15T22:34:38.187Z,20.27
2022-12-15T22:37:04.812Z,21.92
2022-12-15T22:39:31.694Z,34.97
2022-12-15T22:41:58.692Z,25.85
2022-12-15T22:44:28.005Z,22.33
2022-12-15T22:46:56.751Z,26.20
2022-12-15T22:49:33.676Z,38.35
2022-12-15T22:52:00.433Z,25.23
2022-12-15T22:54:28.968Z,21.67
2022-12-15T22:57:06.089Z,17.52
2022-12-15T22:59:43.639Z,22.08
2022-12-15T23:02:11.100Z,26.77
2022-12-15T23:04:37.689Z,31.60
2022-12-15T23:07:07.401Z,32.13
2022-12-15T23:09:34.079Z,37.03
2022-12-15T23:12:00.864Z,37.35
2022-12-15T23:14:46.324Z,26.33
2022-12-15T23:17:13.421Z,26.00
2022-12-15T23:19:47.120Z,23.50
2022-12-15T23:22:14.389Z,24.10
2022-12-15T23:24:41.651Z,23.15
2022-12-15T23:27:11.888Z,18.80
2022-12-15T23:29:38.574Z,18.92
2022-12-15T23:32:05.903Z,18.95
2022-12-15T23:34:32.486Z,18.17
2022-12-15T23:36:59.096Z,17.88
2022-12-15T23:39:25.728Z,17.95
2022-12-15T23:41:52.296Z,17.73
2022-12-15T23:44:18.897Z,20.17
2022-12-15T23:46:46.672Z,18.92
2022-12-15T23:49:13.413Z,21.30
2022-12-15T23:51:39.990Z,19.92
2022-12-15T23:54:06.752Z,18.90
2022-12-15T23:56:33.396Z,18.25
2022-12-15T23:59:00.020Z,17.83
